Terminal Aerodrome Forecast
Issued by NWS

Home | Current Version | Previous Version | Text Only | Print | Product List | Glossary On
Versions: 1 2 3 4 5 6 7 8 9 10 11 12
000
FTUS45 KVEF 301700
TAFVGT
TAF
KVGT 301720Z 3018/3118 VRB05KT P6SM BKN250
     FM302000 19010KT P6SM SCT250
     FM302100 18014G24KT P6SM SCT250
     FM310200 23011KT P6SM SCT250=

USA.gov is the U.S. government's official web portal to all federal, state and local government web resources and services.